sensor_id;sensor_type;location;lat;lon;timestamp;P1;durP1;ratioP1;P2;durP2;ratioP2
21272;SDS011;36726;52.328;10.552;2023-03-14T00:00:16;2.92;;;1.30;;
21272;SDS011;36726;52.328;10.552;2023-03-14T00:02:42;1.67;;;1.20;;
21272;SDS011;36726;52.328;10.552;2023-03-14T00:05:09;1.38;;;0.95;;
21272;SDS011;36726;52.328;10.552;2023-03-14T00:07:37;1.65;;;0.98;;
21272;SDS011;36726;52.328;10.552;2023-03-14T00:10:05;1.88;;;0.90;;
21272;SDS011;36726;52.328;10.552;2023-03-14T00:12:37;1.90;;;0.80;;
21272;SDS011;36726;52.328;10.552;2023-03-14T00:15:04;2.13;;;0.93;;
21272;SDS011;36726;52.328;10.552;2023-03-14T00:17:33;1.35;;;0.90;;
21272;SDS011;36726;52.328;10.552;2023-03-14T00:20:02;1.83;;;1.00;;
21272;SDS011;36726;52.328;10.552;2023-03-14T00:22:34;1.85;;;0.90;;
21272;SDS011;36726;52.328;10.552;2023-03-14T00:25:02;3.97;;;1.02;;
21272;SDS011;36726;52.328;10.552;2023-03-14T00:27:29;1.20;;;0.88;;
21272;SDS011;36726;52.328;10.552;2023-03-14T00:29:56;1.83;;;1.20;;
21272;SDS011;36726;52.328;10.552;2023-03-14T00:32:23;2.17;;;1.27;;
21272;SDS011;36726;52.328;10.552;2023-03-14T00:34:50;1.98;;;1.20;;
21272;SDS011;36726;52.328;10.552;2023-03-14T00:37:16;1.90;;;1.40;;
21272;SDS011;36726;52.328;10.552;2023-03-14T00:39:43;2.13;;;1.33;;
21272;SDS011;36726;52.328;10.552;2023-03-14T00:42:10;2.78;;;1.20;;
21272;SDS011;36726;52.328;10.552;2023-03-14T00:44:36;1.75;;;1.20;;
21272;SDS011;36726;52.328;10.552;2023-03-14T00:47:05;2.72;;;1.20;;
21272;SDS011;36726;52.328;10.552;2023-03-14T00:49:32;2.25;;;1.10;;
21272;SDS011;36726;52.328;10.552;2023-03-14T00:51:59;1.52;;;0.90;;
21272;SDS011;36726;52.328;10.552;2023-03-14T00:54:25;1.67;;;0.70;;
21272;SDS011;36726;52.328;10.552;2023-03-14T00:56:52;1.17;;;0.85;;
21272;SDS011;36726;52.328;10.552;2023-03-14T00:59:19;1.20;;;0.68;;
21272;SDS011;36726;52.328;10.552;2023-03-14T01:01:45;1.33;;;0.98;;
21272;SDS011;36726;52.328;10.552;2023-03-14T01:04:12;1.63;;;0.70;;
21272;SDS011;36726;52.328;10.552;2023-03-14T01:06:39;0.90;;;0.80;;
21272;SDS011;36726;52.328;10.552;2023-03-14T01:09:06;0.80;;;0.60;;
21272;SDS011;36726;52.328;10.552;2023-03-14T01:11:33;1.05;;;0.75;;
21272;SDS011;36726;52.328;10.552;2023-03-14T01:14:01;0.95;;;0.65;;
21272;SDS011;36726;52.328;10.552;2023-03-14T01:16:29;1.95;;;0.70;;
21272;SDS011;36726;52.328;10.552;2023-03-14T01:18:59;1.60;;;0.50;;
21272;SDS011;36726;52.328;10.552;2023-03-14T01:21:28;1.52;;;0.70;;
21272;SDS011;36726;52.328;10.552;2023-03-14T01:23:57;3.03;;;0.80;;
21272;SDS011;36726;52.328;10.552;2023-03-14T01:26:26;1.70;;;0.93;;
21272;SDS011;36726;52.328;10.552;2023-03-14T01:28:55;3.05;;;0.80;;
21272;SDS011;36726;52.328;10.552;2023-03-14T01:31:23;1.23;;;0.80;;
21272;SDS011;36726;52.328;10.552;2023-03-14T01:33:50;1.77;;;0.90;;
21272;SDS011;36726;52.328;10.552;2023-03-14T01:36:17;1.50;;;0.90;;
21272;SDS011;36726;52.328;10.552;2023-03-14T01:38:44;2.05;;;1.00;;
21272;SDS011;36726;52.328;10.552;2023-03-14T01:41:15;2.13;;;0.73;;
21272;SDS011;36726;52.328;10.552;2023-03-14T01:43:43;2.20;;;0.98;;
21272;SDS011;36726;52.328;10.552;2023-03-14T01:46:18;4.30;;;1.05;;
21272;SDS011;36726;52.328;10.552;2023-03-14T01:54:40;0.98;;;0.52;;
21272;SDS011;36726;52.328;10.552;2023-03-14T01:59:43;1.40;;;0.80;;
21272;SDS011;36726;52.328;10.552;2023-03-14T02:02:14;1.23;;;0.80;;
21272;SDS011;36726;52.328;10.552;2023-03-14T02:04:42;1.75;;;0.90;;
21272;SDS011;36726;52.328;10.552;2023-03-14T02:07:12;1.52;;;0.95;;
21272;SDS011;36726;52.328;10.552;2023-03-14T02:09:54;3.22;;;1.00;;
21272;SDS011;36726;52.328;10.552;2023-03-14T02:12:25;2.17;;;0.80;;
21272;SDS011;36726;52.328;10.552;2023-03-14T02:15:13;3.17;;;0.98;;
21272;SDS011;36726;52.328;10.552;2023-03-14T02:17:51;3.10;;;1.23;;
21272;SDS011;36726;52.328;10.552;2023-03-14T02:23:39;0.60;;;0.60;;
21272;SDS011;36726;52.328;10.552;2023-03-14T02:26:15;1.35;;;0.68;;
21272;SDS011;36726;52.328;10.552;2023-03-14T02:28:49;1.08;;;0.60;;
21272;SDS011;36726;52.328;10.552;2023-03-14T02:31:17;1.67;;;0.80;;
21272;SDS011;36726;52.328;10.552;2023-03-14T02:33:43;1.65;;;0.68;;
21272;SDS011;36726;52.328;10.552;2023-03-14T02:36:11;1.58;;;0.70;;
21272;SDS011;36726;52.328;10.552;2023-03-14T02:41:24;3.17;;;0.90;;
21272;SDS011;36726;52.328;10.552;2023-03-14T02:43:59;1.67;;;0.52;;
21272;SDS011;36726;52.328;10.552;2023-03-14T02:46:26;1.17;;;0.60;;
21272;SDS011;36726;52.328;10.552;2023-03-14T02:51:35;0.75;;;0.40;;
21272;SDS011;36726;52.328;10.552;2023-03-14T02:54:04;1.80;;;0.60;;
21272;SDS011;36726;52.328;10.552;2023-03-14T02:56:31;1.45;;;0.73;;
21272;SDS011;36726;52.328;10.552;2023-03-14T02:59:02;3.10;;;0.40;;
21272;SDS011;36726;52.328;10.552;2023-03-14T03:01:38;1.38;;;0.60;;
21272;SDS011;36726;52.328;10.552;2023-03-14T03:04:04;4.45;;;0.88;;
21272;SDS011;36726;52.328;10.552;2023-03-14T03:06:31;2.65;;;0.70;;
21272;SDS011;36726;52.328;10.552;2023-03-14T03:08:59;0.93;;;0.60;;
21272;SDS011;36726;52.328;10.552;2023-03-14T03:11:26;1.17;;;0.55;;
21272;SDS011;36726;52.328;10.552;2023-03-14T03:13:53;2.35;;;0.60;;
21272;SDS011;36726;52.328;10.552;2023-03-14T03:16:20;1.15;;;0.60;;
21272;SDS011;36726;52.328;10.552;2023-03-14T03:18:46;0.50;;;0.32;;
21272;SDS011;36726;52.328;10.552;2023-03-14T03:21:13;1.13;;;0.50;;
21272;SDS011;36726;52.328;10.552;2023-03-14T03:23:42;0.60;;;0.40;;
21272;SDS011;36726;52.328;10.552;2023-03-14T03:26:09;1.40;;;0.55;;
21272;SDS011;36726;52.328;10.552;2023-03-14T03:28:36;1.85;;;0.70;;
21272;SDS011;36726;52.328;10.552;2023-03-14T03:31:07;0.80;;;0.43;;
21272;SDS011;36726;52.328;10.552;2023-03-14T03:33:36;1.48;;;0.50;;
21272;SDS011;36726;52.328;10.552;2023-03-14T03:36:04;5.63;;;0.63;;
21272;SDS011;36726;52.328;10.552;2023-03-14T03:38:34;1.60;;;0.52;;
21272;SDS011;36726;52.328;10.552;2023-03-14T03:41:04;0.90;;;0.40;;
21272;SDS011;36726;52.328;10.552;2023-03-14T03:43:32;2.88;;;0.70;;
21272;SDS011;36726;52.328;10.552;2023-03-14T03:46:04;0.95;;;0.40;;
21272;SDS011;36726;52.328;10.552;2023-03-14T03:48:31;1.08;;;0.65;;
21272;SDS011;36726;52.328;10.552;2023-03-14T03:51:01;1.67;;;0.50;;
21272;SDS011;36726;52.328;10.552;2023-03-14T03:53:28;1.65;;;0.65;;
21272;SDS011;36726;52.328;10.552;2023-03-14T03:56:03;0.88;;;0.57;;
21272;SDS011;36726;52.328;10.552;2023-03-14T03:58:29;1.27;;;0.52;;
21272;SDS011;36726;52.328;10.552;2023-03-14T04:00:56;2.80;;;0.88;;
21272;SDS011;36726;52.328;10.552;2023-03-14T04:03:23;2.03;;;0.63;;
21272;SDS011;36726;52.328;10.552;2023-03-14T04:06:00;0.90;;;0.50;;
21272;SDS011;36726;52.328;10.552;2023-03-14T04:08:28;1.13;;;0.70;;
21272;SDS011;36726;52.328;10.552;2023-03-14T04:10:55;1.63;;;0.80;;
21272;SDS011;36726;52.328;10.552;2023-03-14T04:13:37;0.80;;;0.47;;
21272;SDS011;36726;52.328;10.552;2023-03-14T04:16:08;2.42;;;0.70;;
21272;SDS011;36726;52.328;10.552;2023-03-14T04:18:40;1.75;;;0.75;;
21272;SDS011;36726;52.328;10.552;2023-03-14T04:21:06;2.90;;;0.60;;
21272;SDS011;36726;52.328;10.552;2023-03-14T04:23:42;0.75;;;0.57;;
21272;SDS011;36726;52.328;10.552;2023-03-14T04:26:09;3.42;;;0.82;;
21272;SDS011;36726;52.328;10.552;2023-03-14T04:28:36;2.25;;;0.80;;
21272;SDS011;36726;52.328;10.552;2023-03-14T04:31:07;1.60;;;0.70;;
21272;SDS011;36726;52.328;10.552;2023-03-14T04:33:38;1.80;;;0.60;;
21272;SDS011;36726;52.328;10.552;2023-03-14T04:36:06;1.17;;;0.70;;
21272;SDS011;36726;52.328;10.552;2023-03-14T04:38:34;2.88;;;0.60;;
21272;SDS011;36726;52.328;10.552;2023-03-14T04:41:01;2.50;;;0.73;;
21272;SDS011;36726;52.328;10.552;2023-03-14T04:43:31;0.93;;;0.65;;
21272;SDS011;36726;52.328;10.552;2023-03-14T04:46:02;2.08;;;1.00;;
21272;SDS011;36726;52.328;10.552;2023-03-14T04:48:29;1.70;;;0.80;;
21272;SDS011;36726;52.328;10.552;2023-03-14T04:50:57;1.83;;;0.60;;
21272;SDS011;36726;52.328;10.552;2023-03-14T04:53:25;3.33;;;0.68;;
21272;SDS011;36726;52.328;10.552;2023-03-14T04:55:55;3.13;;;0.77;;
21272;SDS011;36726;52.328;10.552;2023-03-14T04:58:24;2.97;;;0.80;;
21272;SDS011;36726;52.328;10.552;2023-03-14T05:00:52;2.05;;;0.60;;
21272;SDS011;36726;52.328;10.552;2023-03-14T05:03:45;1.65;;;0.70;;
21272;SDS011;36726;52.328;10.552;2023-03-14T05:06:38;2.00;;;0.52;;
21272;SDS011;36726;52.328;10.552;2023-03-14T05:09:27;0.80;;;0.63;;
21272;SDS011;36726;52.328;10.552;2023-03-14T05:12:20;1.33;;;0.50;;
21272;SDS011;36726;52.328;10.552;2023-03-14T05:14:55;1.67;;;0.63;;
21272;SDS011;36726;52.328;10.552;2023-03-14T05:17:22;0.95;;;0.50;;
21272;SDS011;36726;52.328;10.552;2023-03-14T05:20:07;0.90;;;0.63;;
21272;SDS011;36726;52.328;10.552;2023-03-14T05:22:54;2.50;;;0.60;;
21272;SDS011;36726;52.328;10.552;2023-03-14T05:25:23;2.25;;;0.80;;
21272;SDS011;36726;52.328;10.552;2023-03-14T05:28:05;1.27;;;0.50;;
21272;SDS011;36726;52.328;10.552;2023-03-14T05:30:41;0.88;;;0.40;;
21272;SDS011;36726;52.328;10.552;2023-03-14T05:33:10;1.55;;;0.50;;
21272;SDS011;36726;52.328;10.552;2023-03-14T05:35:55;1.98;;;0.65;;
21272;SDS011;36726;52.328;10.552;2023-03-14T05:38:36;2.28;;;0.60;;
21272;SDS011;36726;52.328;10.552;2023-03-14T05:41:24;2.33;;;0.60;;
21272;SDS011;36726;52.328;10.552;2023-03-14T05:44:02;0.60;;;0.40;;
21272;SDS011;36726;52.328;10.552;2023-03-14T05:47:04;0.88;;;0.32;;
21272;SDS011;36726;52.328;10.552;2023-03-14T05:50:06;3.03;;;0.45;;
21272;SDS011;36726;52.328;10.552;2023-03-14T05:52:50;1.23;;;0.55;;
21272;SDS011;36726;52.328;10.552;2023-03-14T05:55:23;0.82;;;0.40;;
21272;SDS011;36726;52.328;10.552;2023-03-14T05:58:16;1.83;;;0.52;;
21272;SDS011;36726;52.328;10.552;2023-03-14T06:01:04;0.80;;;0.30;;
21272;SDS011;36726;52.328;10.552;2023-03-14T06:03:49;0.85;;;0.32;;
21272;SDS011;36726;52.328;10.552;2023-03-14T06:06:15;2.42;;;0.38;;
21272;SDS011;36726;52.328;10.552;2023-03-14T06:08:42;0.82;;;0.43;;
21272;SDS011;36726;52.328;10.552;2023-03-14T06:11:10;3.90;;;0.40;;
21272;SDS011;36726;52.328;10.552;2023-03-14T06:13:37;0.73;;;0.30;;
21272;SDS011;36726;52.328;10.552;2023-03-14T06:16:03;0.75;;;0.30;;
21272;SDS011;36726;52.328;10.552;2023-03-14T06:18:30;1.40;;;0.50;;
21272;SDS011;36726;52.328;10.552;2023-03-14T06:20:59;1.10;;;0.68;;
21272;SDS011;36726;52.328;10.552;2023-03-14T06:23:25;3.63;;;0.50;;
21272;SDS011;36726;52.328;10.552;2023-03-14T06:25:55;0.63;;;0.40;;
21272;SDS011;36726;52.328;10.552;2023-03-14T06:28:23;1.13;;;0.30;;
21272;SDS011;36726;52.328;10.552;2023-03-14T06:30:52;2.72;;;0.70;;
21272;SDS011;36726;52.328;10.552;2023-03-14T06:33:19;1.27;;;0.40;;
21272;SDS011;36726;52.328;10.552;2023-03-14T06:35:46;0.93;;;0.32;;
21272;SDS011;36726;52.328;10.552;2023-03-14T06:38:13;0.77;;;0.40;;
21272;SDS011;36726;52.328;10.552;2023-03-14T06:40:40;0.82;;;0.40;;
21272;SDS011;36726;52.328;10.552;2023-03-14T06:43:11;0.47;;;0.20;;
21272;SDS011;36726;52.328;10.552;2023-03-14T06:45:40;0.57;;;0.30;;
21272;SDS011;36726;52.328;10.552;2023-03-14T06:48:07;0.77;;;0.30;;
21272;SDS011;36726;52.328;10.552;2023-03-14T06:50:38;0.82;;;0.50;;
21272;SDS011;36726;52.328;10.552;2023-03-14T06:53:05;0.60;;;0.30;;
21272;SDS011;36726;52.328;10.552;2023-03-14T06:55:35;1.55;;;0.55;;
21272;SDS011;36726;52.328;10.552;2023-03-14T06:58:02;0.60;;;0.30;;
21272;SDS011;36726;52.328;10.552;2023-03-14T07:00:32;1.45;;;0.50;;
21272;SDS011;36726;52.328;10.552;2023-03-14T07:02:59;0.90;;;0.40;;
21272;SDS011;36726;52.328;10.552;2023-03-14T07:05:32;1.30;;;0.47;;
21272;SDS011;36726;52.328;10.552;2023-03-14T07:07:59;0.73;;;0.22;;
21272;SDS011;36726;52.328;10.552;2023-03-14T07:10:26;1.02;;;0.50;;
21272;SDS011;36726;52.328;10.552;2023-03-14T07:12:53;1.48;;;0.40;;
21272;SDS011;36726;52.328;10.552;2023-03-14T07:15:23;1.02;;;0.40;;
21272;SDS011;36726;52.328;10.552;2023-03-14T07:17:55;0.93;;;0.30;;
21272;SDS011;36726;52.328;10.552;2023-03-14T07:20:22;1.77;;;0.40;;
21272;SDS011;36726;52.328;10.552;2023-03-14T07:22:50;1.95;;;0.57;;
21272;SDS011;36726;52.328;10.552;2023-03-14T07:25:24;1.38;;;0.30;;
21272;SDS011;36726;52.328;10.552;2023-03-14T07:27:51;0.85;;;0.30;;
21272;SDS011;36726;52.328;10.552;2023-03-14T07:30:18;1.75;;;0.63;;
21272;SDS011;36726;52.328;10.552;2023-03-14T07:32:45;1.25;;;0.50;;
21272;SDS011;36726;52.328;10.552;2023-03-14T07:35:13;2.47;;;0.60;;
21272;SDS011;36726;52.328;10.552;2023-03-14T07:37:40;0.60;;;0.40;;
21272;SDS011;36726;52.328;10.552;2023-03-14T07:40:08;2.95;;;0.50;;
21272;SDS011;36726;52.328;10.552;2023-03-14T07:42:36;1.25;;;0.60;;
21272;SDS011;36726;52.328;10.552;2023-03-14T07:45:26;2.38;;;0.30;;
21272;SDS011;36726;52.328;10.552;2023-03-14T07:47:53;2.42;;;0.50;;
21272;SDS011;36726;52.328;10.552;2023-03-14T07:50:24;1.48;;;0.50;;
21272;SDS011;36726;52.328;10.552;2023-03-14T07:52:51;2.53;;;0.32;;
21272;SDS011;36726;52.328;10.552;2023-03-14T07:55:18;0.40;;;0.30;;
21272;SDS011;36726;52.328;10.552;2023-03-14T07:57:44;0.95;;;0.35;;
21272;SDS011;36726;52.328;10.552;2023-03-14T08:00:11;1.02;;;0.40;;
21272;SDS011;36726;52.328;10.552;2023-03-14T08:02:41;1.55;;;0.30;;
21272;SDS011;36726;52.328;10.552;2023-03-14T08:05:07;0.30;;;0.20;;
21272;SDS011;36726;52.328;10.552;2023-03-14T08:07:35;2.58;;;0.55;;
21272;SDS011;36726;52.328;10.552;2023-03-14T08:10:02;2.15;;;0.55;;
21272;SDS011;36726;52.328;10.552;2023-03-14T08:12:28;1.88;;;0.68;;
21272;SDS011;36726;52.328;10.552;2023-03-14T08:14:55;1.63;;;0.68;;
21272;SDS011;36726;52.328;10.552;2023-03-14T08:17:21;1.17;;;0.50;;
21272;SDS011;36726;52.328;10.552;2023-03-14T08:19:48;0.73;;;0.52;;
21272;SDS011;36726;52.328;10.552;2023-03-14T08:22:15;1.92;;;0.60;;
21272;SDS011;36726;52.328;10.552;2023-03-14T08:24:45;1.77;;;0.50;;
21272;SDS011;36726;52.328;10.552;2023-03-14T08:27:11;1.00;;;0.50;;
21272;SDS011;36726;52.328;10.552;2023-03-14T08:29:38;1.90;;;0.73;;
21272;SDS011;36726;52.328;10.552;2023-03-14T08:32:06;1.10;;;0.50;;
21272;SDS011;36726;52.328;10.552;2023-03-14T08:34:33;1.92;;;0.65;;
21272;SDS011;36726;52.328;10.552;2023-03-14T08:37:00;0.55;;;0.47;;
21272;SDS011;36726;52.328;10.552;2023-03-14T08:39:29;1.80;;;0.70;;
21272;SDS011;36726;52.328;10.552;2023-03-14T08:41:55;0.88;;;0.50;;
21272;SDS011;36726;52.328;10.552;2023-03-14T08:44:22;0.60;;;0.40;;
21272;SDS011;36726;52.328;10.552;2023-03-14T08:46:48;4.30;;;0.60;;
21272;SDS011;36726;52.328;10.552;2023-03-14T08:49:15;2.97;;;0.70;;
21272;SDS011;36726;52.328;10.552;2023-03-14T08:51:42;1.67;;;0.70;;
21272;SDS011;36726;52.328;10.552;2023-03-14T08:54:11;1.25;;;0.45;;
21272;SDS011;36726;52.328;10.552;2023-03-14T08:56:38;1.27;;;0.40;;
21272;SDS011;36726;52.328;10.552;2023-03-14T08:59:05;1.20;;;0.50;;
21272;SDS011;36726;52.328;10.552;2023-03-14T09:01:32;2.42;;;0.60;;
21272;SDS011;36726;52.328;10.552;2023-03-14T09:03:58;1.50;;;0.57;;
21272;SDS011;36726;52.328;10.552;2023-03-14T09:06:25;1.60;;;0.47;;
21272;SDS011;36726;52.328;10.552;2023-03-14T09:08:52;1.42;;;0.38;;
21272;SDS011;36726;52.328;10.552;2023-03-14T09:11:18;2.58;;;0.68;;
21272;SDS011;36726;52.328;10.552;2023-03-14T09:13:45;2.03;;;0.57;;
21272;SDS011;36726;52.328;10.552;2023-03-14T09:16:11;0.90;;;0.50;;
21272;SDS011;36726;52.328;10.552;2023-03-14T09:18:38;5.05;;;0.40;;
21272;SDS011;36726;52.328;10.552;2023-03-14T09:21:04;1.30;;;0.30;;
21272;SDS011;36726;52.328;10.552;2023-03-14T09:23:31;0.60;;;0.32;;
21272;SDS011;36726;52.328;10.552;2023-03-14T09:25:58;1.40;;;0.50;;
21272;SDS011;36726;52.328;10.552;2023-03-14T09:28:26;1.45;;;0.40;;
21272;SDS011;36726;52.328;10.552;2023-03-14T09:30:52;0.90;;;0.30;;
21272;SDS011;36726;52.328;10.552;2023-03-14T09:33:20;0.90;;;0.40;;
21272;SDS011;36726;52.328;10.552;2023-03-14T09:35:47;2.25;;;0.63;;
21272;SDS011;36726;52.328;10.552;2023-03-14T09:38:13;1.98;;;0.35;;
21272;SDS011;36726;52.328;10.552;2023-03-14T09:40:40;0.73;;;0.32;;
21272;SDS011;36726;52.328;10.552;2023-03-14T09:43:09;1.52;;;0.40;;
21272;SDS011;36726;52.328;10.552;2023-03-14T09:45:39;1.30;;;0.70;;
21272;SDS011;36726;52.328;10.552;2023-03-14T09:48:12;0.40;;;0.25;;
21272;SDS011;36726;52.328;10.552;2023-03-14T09:50:44;0.60;;;0.30;;
21272;SDS011;36726;52.328;10.552;2023-03-14T09:53:14;1.33;;;0.40;;
21272;SDS011;36726;52.328;10.552;2023-03-14T09:55:45;3.38;;;0.60;;
21272;SDS011;36726;52.328;10.552;2023-03-14T09:58:21;1.13;;;0.50;;
21272;SDS011;36726;52.328;10.552;2023-03-14T10:00:49;1.50;;;0.40;;
21272;SDS011;36726;52.328;10.552;2023-03-14T10:03:24;2.28;;;0.20;;
21272;SDS011;36726;52.328;10.552;2023-03-14T10:06:01;0.47;;;0.30;;
21272;SDS011;36726;52.328;10.552;2023-03-14T10:08:35;0.35;;;0.17;;
21272;SDS011;36726;52.328;10.552;2023-03-14T10:11:05;0.10;;;0.10;;
21272;SDS011;36726;52.328;10.552;2023-03-14T10:13:33;0.50;;;0.15;;
21272;SDS011;36726;52.328;10.552;2023-03-14T10:16:01;0.35;;;0.20;;
21272;SDS011;36726;52.328;10.552;2023-03-14T10:18:30;0.50;;;0.30;;
21272;SDS011;36726;52.328;10.552;2023-03-14T10:21:02;0.43;;;0.20;;
21272;SDS011;36726;52.328;10.552;2023-03-14T10:23:30;0.20;;;0.10;;
21272;SDS011;36726;52.328;10.552;2023-03-14T10:26:07;0.17;;;0.15;;
21272;SDS011;36726;52.328;10.552;2023-03-14T10:28:39;0.88;;;0.10;;
21272;SDS011;36726;52.328;10.552;2023-03-14T10:31:09;1.02;;;0.22;;
21272;SDS011;36726;52.328;10.552;2023-03-14T10:33:37;0.20;;;0.10;;
21272;SDS011;36726;52.328;10.552;2023-03-14T10:38:48;0.32;;;0.10;;
21272;SDS011;36726;52.328;10.552;2023-03-14T10:41:16;0.20;;;0.10;;
21272;SDS011;36726;52.328;10.552;2023-03-14T10:43:45;0.10;;;0.10;;
21272;SDS011;36726;52.328;10.552;2023-03-14T10:46:17;1.00;;;0.90;;
21272;SDS011;36726;52.328;10.552;2023-03-14T10:49:05;0.15;;;0.10;;
21272;SDS011;36726;52.328;10.552;2023-03-14T10:51:32;1.17;;;0.25;;
21272;SDS011;36726;52.328;10.552;2023-03-14T10:56:26;0.20;;;0.10;;
21272;SDS011;36726;52.328;10.552;2023-03-14T10:58:59;0.93;;;0.20;;
21272;SDS011;36726;52.328;10.552;2023-03-14T11:01:45;0.70;;;0.22;;
21272;SDS011;36726;52.328;10.552;2023-03-14T11:07:32;0.50;;;0.10;;
21272;SDS011;36726;52.328;10.552;2023-03-14T11:10:10;0.20;;;0.20;;
21272;SDS011;36726;52.328;10.552;2023-03-14T11:15:25;0.10;;;0.10;;
21272;SDS011;36726;52.328;10.552;2023-03-14T11:18:12;0.10;;;0.10;;
21272;SDS011;36726;52.328;10.552;2023-03-14T11:21:06;0.85;;;0.20;;
21272;SDS011;36726;52.328;10.552;2023-03-14T11:23:50;0.80;;;0.20;;
21272;SDS011;36726;52.328;10.552;2023-03-14T11:26:28;1.70;;;0.10;;
21272;SDS011;36726;52.328;10.552;2023-03-14T11:29:54;0.30;;;0.17;;
21272;SDS011;36726;52.328;10.552;2023-03-14T11:32:10;0.85;;;0.10;;
21272;SDS011;36726;52.328;10.552;2023-03-14T11:35:03;0.10;;;0.10;;
21272;SDS011;36726;52.328;10.552;2023-03-14T11:37:56;0.35;;;0.20;;
21272;SDS011;36726;52.328;10.552;2023-03-14T11:40:26;0.85;;;0.20;;
21272;SDS011;36726;52.328;10.552;2023-03-14T11:43:17;0.25;;;0.20;;
21272;SDS011;36726;52.328;10.552;2023-03-14T11:45:44;0.35;;;0.30;;
21272;SDS011;36726;52.328;10.552;2023-03-14T11:51:02;0.60;;;0.20;;
21272;SDS011;36726;52.328;10.552;2023-03-14T11:56:25;0.73;;;0.15;;
21272;SDS011;36726;52.328;10.552;2023-03-14T11:59:00;0.20;;;0.20;;
21272;SDS011;36726;52.328;10.552;2023-03-14T12:01:33;0.20;;;0.10;;
21272;SDS011;36726;52.328;10.552;2023-03-14T12:04:15;0.52;;;0.30;;
21272;SDS011;36726;52.328;10.552;2023-03-14T12:06:55;1.73;;;0.98;;
21272;SDS011;36726;52.328;10.552;2023-03-14T12:09:25;2.05;;;1.23;;
21272;SDS011;36726;52.328;10.552;2023-03-14T12:11:54;1.70;;;1.45;;
21272;SDS011;36726;52.328;10.552;2023-03-14T12:14:26;0.70;;;0.68;;
21272;SDS011;36726;52.328;10.552;2023-03-14T12:16:55;2.53;;;1.70;;
21272;SDS011;36726;52.328;10.552;2023-03-14T12:19:25;8.82;;;0.52;;
21272;SDS011;36726;52.328;10.552;2023-03-14T12:24:45;0.30;;;0.20;;
21272;SDS011;36726;52.328;10.552;2023-03-14T12:27:37;0.25;;;0.20;;
21272;SDS011;36726;52.328;10.552;2023-03-14T12:30:16;1.65;;;0.40;;
21272;SDS011;36726;52.328;10.552;2023-03-14T12:35:43;3.25;;;0.40;;
21272;SDS011;36726;52.328;10.552;2023-03-14T12:43:35;0.65;;;0.20;;
21272;SDS011;36726;52.328;10.552;2023-03-14T12:48:33;3.40;;;0.35;;
21272;SDS011;36726;52.328;10.552;2023-03-14T12:51:03;3.42;;;0.22;;
21272;SDS011;36726;52.328;10.552;2023-03-14T12:56:23;0.85;;;0.30;;
21272;SDS011;36726;52.328;10.552;2023-03-14T13:01:22;0.30;;;0.20;;
21272;SDS011;36726;52.328;10.552;2023-03-14T13:03:51;0.43;;;0.30;;
21272;SDS011;36726;52.328;10.552;2023-03-14T13:07:02;0.40;;;0.40;;
21272;SDS011;36726;52.328;10.552;2023-03-14T13:11:56;0.40;;;0.40;;
21272;SDS011;36726;52.328;10.552;2023-03-14T13:14:28;0.50;;;0.40;;
21272;SDS011;36726;52.328;10.552;2023-03-14T13:16:59;0.73;;;0.50;;
21272;SDS011;36726;52.328;10.552;2023-03-14T13:19:48;0.43;;;0.35;;
21272;SDS011;36726;52.328;10.552;2023-03-14T13:22:26;0.30;;;0.30;;
21272;SDS011;36726;52.328;10.552;2023-03-14T13:25:02;0.77;;;0.60;;
21272;SDS011;36726;52.328;10.552;2023-03-14T13:27:34;0.60;;;0.50;;
21272;SDS011;36726;52.328;10.552;2023-03-14T13:30:21;1.75;;;0.77;;
21272;SDS011;36726;52.328;10.552;2023-03-14T13:32:51;1.17;;;0.60;;
21272;SDS011;36726;52.328;10.552;2023-03-14T13:35:20;1.02;;;0.63;;
21272;SDS011;36726;52.328;10.552;2023-03-14T13:37:54;0.98;;;0.60;;
21272;SDS011;36726;52.328;10.552;2023-03-14T13:40:36;1.10;;;0.60;;
21272;SDS011;36726;52.328;10.552;2023-03-14T13:43:11;1.55;;;0.70;;
21272;SDS011;36726;52.328;10.552;2023-03-14T13:48:30;3.45;;;0.88;;
21272;SDS011;36726;52.328;10.552;2023-03-14T13:51:00;3.25;;;0.90;;
21272;SDS011;36726;52.328;10.552;2023-03-14T13:53:29;1.80;;;0.80;;
21272;SDS011;36726;52.328;10.552;2023-03-14T13:55:56;7.15;;;1.00;;
21272;SDS011;36726;52.328;10.552;2023-03-14T13:58:28;2.45;;;0.85;;
21272;SDS011;36726;52.328;10.552;2023-03-14T14:01:01;3.03;;;1.02;;
21272;SDS011;36726;52.328;10.552;2023-03-14T14:03:37;4.20;;;1.30;;
21272;SDS011;36726;52.328;10.552;2023-03-14T14:06:08;3.70;;;1.10;;
21272;SDS011;36726;52.328;10.552;2023-03-14T14:08:47;3.42;;;1.27;;
21272;SDS011;36726;52.328;10.552;2023-03-14T14:17:34;5.55;;;1.30;;
21272;SDS011;36726;52.328;10.552;2023-03-14T14:20:13;1.58;;;0.90;;
21272;SDS011;36726;52.328;10.552;2023-03-14T14:23:05;5.78;;;1.40;;
21272;SDS011;36726;52.328;10.552;2023-03-14T14:25:36;9.25;;;1.60;;
21272;SDS011;36726;52.328;10.552;2023-03-14T14:30:46;2.72;;;1.38;;
21272;SDS011;36726;52.328;10.552;2023-03-14T14:33:19;2.08;;;1.00;;
21272;SDS011;36726;52.328;10.552;2023-03-14T14:35:50;3.25;;;1.10;;
21272;SDS011;36726;52.328;10.552;2023-03-14T14:38:27;2.92;;;1.48;;
21272;SDS011;36726;52.328;10.552;2023-03-14T14:40:59;3.90;;;0.90;;
21272;SDS011;36726;52.328;10.552;2023-03-14T14:43:36;3.17;;;0.80;;
21272;SDS011;36726;52.328;10.552;2023-03-14T14:46:07;2.00;;;0.80;;
21272;SDS011;36726;52.328;10.552;2023-03-14T14:48:37;5.35;;;1.10;;
21272;SDS011;36726;52.328;10.552;2023-03-14T14:51:05;8.10;;;0.88;;
21272;SDS011;36726;52.328;10.552;2023-03-14T14:53:37;6.15;;;1.20;;
21272;SDS011;36726;52.328;10.552;2023-03-14T14:56:20;2.28;;;0.77;;
21272;SDS011;36726;52.328;10.552;2023-03-14T14:58:56;6.35;;;1.25;;
21272;SDS011;36726;52.328;10.552;2023-03-14T15:01:26;4.38;;;0.90;;
21272;SDS011;36726;52.328;10.552;2023-03-14T15:04:02;2.03;;;0.57;;
21272;SDS011;36726;52.328;10.552;2023-03-14T15:06:36;3.15;;;0.80;;
21272;SDS011;36726;52.328;10.552;2023-03-14T15:09:02;8.70;;;1.10;;
21272;SDS011;36726;52.328;10.552;2023-03-14T15:11:29;6.70;;;1.30;;
21272;SDS011;36726;52.328;10.552;2023-03-14T15:13:55;4.65;;;1.15;;
21272;SDS011;36726;52.328;10.552;2023-03-14T15:16:23;4.40;;;0.90;;
21272;SDS011;36726;52.328;10.552;2023-03-14T15:18:58;2.92;;;1.08;;
21272;SDS011;36726;52.328;10.552;2023-03-14T15:21:28;5.22;;;1.67;;
21272;SDS011;36726;52.328;10.552;2023-03-14T15:23:55;9.07;;;1.58;;
21272;SDS011;36726;52.328;10.552;2023-03-14T15:26:25;5.80;;;1.50;;
21272;SDS011;36726;52.328;10.552;2023-03-14T15:28:53;6.82;;;1.27;;
21272;SDS011;36726;52.328;10.552;2023-03-14T15:31:20;7.45;;;1.55;;
21272;SDS011;36726;52.328;10.552;2023-03-14T15:33:49;12.70;;;1.52;;
21272;SDS011;36726;52.328;10.552;2023-03-14T15:36:23;9.38;;;1.45;;
21272;SDS011;36726;52.328;10.552;2023-03-14T15:38:52;4.13;;;1.25;;
21272;SDS011;36726;52.328;10.552;2023-03-14T15:41:21;7.18;;;1.52;;
21272;SDS011;36726;52.328;10.552;2023-03-14T15:43:48;10.07;;;1.75;;
21272;SDS011;36726;52.328;10.552;2023-03-14T15:46:15;7.65;;;1.27;;
21272;SDS011;36726;52.328;10.552;2023-03-14T15:48:44;5.18;;;0.88;;
21272;SDS011;36726;52.328;10.552;2023-03-14T15:51:11;5.55;;;0.90;;
21272;SDS011;36726;52.328;10.552;2023-03-14T15:53:38;5.10;;;0.95;;
21272;SDS011;36726;52.328;10.552;2023-03-14T15:56:06;4.88;;;1.30;;
21272;SDS011;36726;52.328;10.552;2023-03-14T15:58:34;6.53;;;0.90;;
21272;SDS011;36726;52.328;10.552;2023-03-14T16:01:01;4.88;;;1.45;;
21272;SDS011;36726;52.328;10.552;2023-03-14T16:03:28;4.20;;;1.40;;